Portada
METAR-TAF:

METAR-TAF

Aeroports :

Dodge County Airport

Juneau, Wisconsin, Estats Units d'Amèrica

latitud: 43-25-36N, longitud: 088-42-12W, altitud: 285 m

Observació

L'informe es va fer fa 21 minuts, a les 12:55 UTC
Vent 8 kt del Est
Temperatura 18°C
Humitat 88%
Pressió 1013 hPa
Visibilitat: 16.1 km
Cel cobert a una alçada de 800 ft

METAR: KUNU 201255Z AUTO 08008KT 10SM OVC008 18/16 A2991 RMK AO2 T01750161

Hora: 08:16 (13:16 UTC)


TAF: manca

Observacions i pronòstics meteorològics de més de 4000 aeroports (METAR i TAF).

Les estacions disponibles són els punts grocs i vermells al mapa.

Posi el ratolí al punt desitjat per veure el nom de l'estació.

Feu clic per veure les observacions i els pronòstics meteorològics.

Per canviar el mapa: feu clic els botons verds amb una creu de color negre per apropar; al botó verd amb un guió per allunyar la imatge; o en les fletxes verdes per a mapes adjacents.


METAR-TAF: